Time;durP1;ratioP1;P1;durP2;ratioP2;P2;SDS_P1;SDS_P2;PMS_P1;PMS_P2;Temp;Humidity;BMP_temperature;BMP_pressure;BME280_temperature;BME280_humidity;BME280_pressure;Samples;Min_cycle;Max_cycle;Signal;HPM_P1;HPM_P2
2022/10/08 00:01:10;;;;;;;12.90;7.47;;;;;;;11.08;89.52;97677.34;5045976;28;20077;-69
2022/10/08 00:03:40;;;;;;;11.48;7.68;;;;;;;10.41;90.77;97579.44;5046121;28;20099;-69
2022/10/08 00:06:11;;;;;;;12.82;6.65;;;;;;;11.09;91.08;97682.53;5045412;28;20102;-70
2022/10/08 00:08:40;;;;;;;12.77;7.20;;;;;;;11.16;91.19;97671.59;5045756;28;20064;-70
2022/10/08 00:11:10;;;;;;;13.32;7.43;;;;;;;11.20;90.25;97674.47;5044042;28;20597;-69
2022/10/08 00:13:39;;;;;;;11.32;6.95;;;;;;;11.14;90.49;97664.81;5044214;28;20147;-69
2022/10/08 00:16:14;;;;;;;9.15;6.20;;;;;;;11.08;90.92;97663.47;5045615;28;20084;-70
2022/10/08 00:18:43;;;;;;;10.48;6.50;;;;;;;10.35;91.29;97550.38;5045689;28;20068;-70
2022/10/08 00:21:13;;;;;;;10.80;7.07;;;;;;;11.08;91.63;97663.47;5043912;28;20508;-69
2022/10/08 00:23:41;;;;;;;12.98;6.60;;;;;;;11.08;91.90;97652.41;5045292;28;20053;-70
2022/10/08 00:26:09;;;;;;;8.85;6.28;;;;;;;9.61;92.18;97439.66;5045428;28;20088;-69
2022/10/08 00:28:37;;;;;;;8.18;5.88;;;;;;;11.02;91.83;97656.59;5045415;28;20107;-70
2022/10/08 00:31:16;;;;;;;17.63;7.18;;;;;;;9.88;92.68;97488.59;5043864;28;20143;-69
2022/10/08 00:33:42;;;;;;;13.25;6.47;;;;;;;10.96;92.95;97655.25;5044081;28;20057;-70
2022/10/08 00:36:11;;;;;;;10.90;7.35;;;;;;;10.51;93.22;97623.22;5044975;28;20057;-70
2022/10/08 00:38:39;;;;;;;12.85;7.15;;;;;;;10.67;93.24;97648.16;5043813;28;20145;-69
2022/10/08 00:41:15;;;;;;;10.73;7.10;;;;;;;10.70;94.29;97658.56;5045173;28;20056;-71
2022/10/08 00:43:50;;;;;;;13.30;6.80;;;;;;;10.63;96.76;97663.91;5043652;28;20088;-70
2022/10/08 00:46:29;;;;;;;10.88;6.55;;;;;;;10.70;96.02;97651.03;5044128;28;20519;-70
2022/10/08 00:49:13;;;;;;;15.98;7.80;;;;;;;10.70;96.22;97653.03;5045122;28;20056;-70
2022/10/08 00:51:43;;;;;;;13.13;7.40;;;;;;;10.55;96.91;97628.84;5045079;28;20146;-69
2022/10/08 00:54:11;;;;;;;10.50;6.72;;;;;;;10.75;95.65;97643.63;5043356;28;20060;-70
2022/10/08 00:56:39;;;;;;;12.48;6.53;;;;;;;10.66;95.55;97647.38;5043752;28;20135;-69
2022/10/08 00:59:11;;;;;;;11.38;7.22;;;;;;;10.27;94.43;97617.84;5043250;28;20084;-70
2022/10/08 01:01:41;;;;;;;9.90;7.10;;;;;;;10.35;93.48;97655.63;5045074;28;20111;-69
2022/10/08 01:04:10;;;;;;;11.15;7.18;;;;;;;10.33;93.94;97655.19;5045257;28;20106;-69
2022/10/08 01:06:43;;;;;;;9.50;6.88;;;;;;;10.34;94.28;97648.47;5044454;28;20138;-69
2022/10/08 01:09:16;;;;;;;12.73;6.78;;;;;;;10.03;95.22;97645.59;5044713;28;20549;-69
2022/10/08 01:11:51;;;;;;;12.43;7.43;;;;;;;10.08;95.03;97642.63;5043343;28;20803;-69
2022/10/08 01:14:38;;;;;;;14.40;8.17;;;;;;;10.10;95.77;97640.28;5044536;28;20141;-70
2022/10/08 01:17:26;;;;;;;15.35;7.07;;;;;;;10.18;96.50;97636.56;5043060;28;20327;-71
2022/10/08 01:20:03;;;;;;;13.25;7.28;;;;;;;10.30;96.02;97633.75;5044642;28;20114;-70
2022/10/08 01:23:01;;;;;;;12.82;7.50;;;;;;;9.80;97.22;97557.97;5044206;28;20459;-70
2022/10/08 01:25:57;;;;;;;16.08;7.10;;;;;;;10.28;98.07;97636.06;5043892;28;20088;-69
2022/10/08 01:28:47;;;;;;;13.13;8.02;;;;;;;10.20;95.96;97628.72;5039998;28;20065;-70
2022/10/08 01:31:25;;;;;;;13.80;7.70;;;;;;;9.87;96.26;97610.72;5044242;28;20080;-70
2022/10/08 01:34:21;;;;;;;11.13;7.72;;;;;;;9.92;94.48;97632.59;5044092;28;20061;-69
2022/10/08 01:36:50;;;;;;;14.70;8.05;;;;;;;9.72;93.25;97617.78;5043813;28;20600;-70
2022/10/08 01:39:19;;;;;;;10.95;7.78;;;;;;;9.84;93.04;97626.06;5042703;28;20126;-70
2022/10/08 01:41:57;;;;;;;12.90;6.93;;;;;;;9.80;92.67;97633.44;5042948;28;20174;-70
2022/10/08 01:44:39;;;;;;;11.48;6.38;;;;;;;9.49;93.48;97591.81;5042773;28;20120;-69
2022/10/08 01:47:10;;;;;;;12.82;7.53;;;;;;;9.71;94.35;97621.72;5042867;28;20053;-70
2022/10/08 01:50:11;;;;;;;11.40;8.02;;;;;;;9.11;95.54;97544.47;5042619;28;20117;-70
2022/10/08 01:52:50;;;;;;;11.50;6.82;;;;;;;9.65;96.12;97620.38;5048193;28;20049;-70
2022/10/08 01:55:22;;;;;;;12.82;7.55;;;;;;;8.52;97.28;97460.53;5042083;28;20148;-70
2022/10/08 01:57:50;;;;;;;13.55;7.88;;;;;;;9.36;97.83;97570.88;5042704;28;20080;-70
2022/10/08 02:00:17;;;;;;;12.73;7.20;;;;;;;9.78;98.43;97618.38;5043909;28;20654;-70
2022/10/08 02:02:44;;;;;;;13.07;7.45;;;;;;;9.05;98.63;97493.34;4670863;28;5002502;-69
2022/10/08 02:05:11;;;;;;;15.10;7.78;;;;;;;9.54;99.37;97579.72;5071285;28;20085;-70
2022/10/08 02:07:42;;;;;;;11.63;7.25;;;;;;;7.96;98.48;97313.28;5043732;28;20067;-69
2022/10/08 02:10:13;;;;;;;11.70;7.40;;;;;;;9.56;98.40;97552.50;5042929;28;20110;-70
2022/10/08 02:12:40;;;;;;;15.05;7.05;;;;;;;9.60;96.47;97581.88;5044039;28;20118;-70
2022/10/08 02:15:13;;;;;;;13.93;7.93;;;;;;;9.51;97.37;97569.34;5043132;28;20140;-70
2022/10/08 02:18:11;;;;;;;12.10;7.13;;;;;;;9.91;99.53;97620.72;5045046;28;20492;-69
2022/10/08 02:20:44;;;;;;;13.18;6.28;;;;;;;9.87;99.63;97614.28;5040844;28;20512;-69
2022/10/08 02:23:36;;;;;;;10.93;7.43;;;;;;;9.88;100.00;97621.44;5046218;28;20122;-69
2022/10/08 02:26:08;;;;;;;12.43;7.57;;;;;;;9.85;100.00;97611.06;5045445;28;20334;-69
2022/10/08 02:28:49;;;;;;;11.57;7.10;;;;;;;9.94;100.00;97608.94;5054136;28;20126;-69
2022/10/08 02:31:25;;;;;;;12.00;7.65;;;;;;;9.68;98.62;97605.00;5046356;28;20545;-69
2022/10/08 02:34:02;;;;;;;12.88;7.47;;;;;;;7.73;98.41;97315.72;5047262;28;20488;-69
2022/10/08 02:36:36;;;;;;;10.48;7.03;;;;;;;9.60;97.16;97609.53;5046073;28;20053;-69
2022/10/08 02:39:04;;;;;;;14.15;7.07;;;;;;;9.53;97.25;97609.31;5047492;28;20110;-69
2022/10/08 02:41:42;;;;;;;14.50;8.35;;;;;;;9.51;97.85;97628.25;5045864;28;20093;-69
2022/10/08 02:44:19;;;;;;;10.77;7.60;;;;;;;9.23;100.00;97619.09;5047334;28;20114;-69
2022/10/08 02:46:49;;;;;;;14.45;8.40;;;;;;;8.84;100.00;97543.22;5047193;28;20565;-69
2022/10/08 02:49:23;;;;;;;15.30;8.18;;;;;;;9.32;100.00;97614.22;5047526;28;20079;-69
2022/10/08 02:51:53;;;;;;;11.18;7.32;;;;;;;8.68;100.00;97533.22;5045969;28;20083;-69
2022/10/08 02:54:22;;;;;;;12.93;7.85;;;;;;;9.46;99.42;97620.19;5045887;28;20080;-69
2022/10/08 02:57:01;;;;;;;14.65;8.05;;;;;;;8.76;99.42;97513.78;5045701;28;20053;-69
2022/10/08 02:59:35;;;;;;;12.38;8.00;;;;;;;9.40;100.00;97627.09;5047174;28;20057;-70
2022/10/08 03:02:03;;;;;;;13.35;7.95;;;;;;;9.07;100.00;97554.63;5045237;28;20049;-69
2022/10/08 03:04:44;;;;;;;13.02;7.47;;;;;;;9.46;100.00;97603.59;5047033;28;20084;-69
2022/10/08 03:07:13;;;;;;;15.73;7.53;;;;;;;9.60;100.00;97630.84;5045637;28;20083;-69
2022/10/08 03:09:44;;;;;;;10.80;6.93;;;;;;;9.08;100.00;97558.97;5045115;28;20088;-69
2022/10/08 03:12:11;;;;;;;11.93;6.97;;;;;;;9.45;100.00;97613.06;5044585;28;20580;-69
2022/10/08 03:14:42;;;;;;;13.45;7.57;;;;;;;8.78;100.00;97505.16;5045292;28;20107;-68
2022/10/08 03:17:13;;;;;;;13.23;8.07;;;;;;;9.41;100.00;97597.47;5046617;28;20132;-69
2022/10/08 03:19:39;;;;;;;13.13;7.10;;;;;;;9.37;100.00;97611.22;5047026;28;20538;-70
2022/10/08 03:22:06;;;;;;;16.15;7.53;;;;;;;9.00;100.00;97590.28;5046615;28;20127;-69
2022/10/08 03:24:34;;;;;;;13.70;8.65;;;;;;;9.31;100.00;97612.59;5046869;28;20068;-69
2022/10/08 03:27:02;;;;;;;16.33;8.80;;;;;;;8.99;100.00;97527.91;5046447;28;20486;-69
2022/10/08 03:29:28;;;;;;;20.15;10.68;;;;;;;9.43;100.00;97623.66;5046483;28;20072;-69
2022/10/08 03:31:55;;;;;;;10.88;8.18;;;;;;;9.43;100.00;97609.81;5044912;28;20580;-70
2022/10/08 03:34:24;;;;;;;19.13;8.00;;;;;;;9.57;100.00;97604.72;5044794;28;20496;-69
2022/10/08 03:36:50;;;;;;;16.15;9.90;;;;;;;9.59;100.00;97610.72;5045003;28;20498;-69
2022/10/08 03:39:17;;;;;;;9.80;7.68;;;;;;;9.37;100.00;97600.16;5044773;28;20057;-70
2022/10/08 03:41:43;;;;;;;16.05;10.35;;;;;;;9.23;100.00;97567.34;5046187;28;20143;-70
2022/10/08 03:44:11;;;;;;;17.30;11.25;;;;;;;8.82;100.00;97511.59;5046474;28;20045;-70
2022/10/08 03:46:38;;;;;;;16.63;11.20;;;;;;;9.22;100.00;97581.50;5044589;28;20106;-69
2022/10/08 03:49:05;;;;;;;16.83;10.10;;;;;;;8.48;100.00;97523.09;5044689;28;20476;-70
2022/10/08 03:51:32;;;;;;;15.65;9.68;;;;;;;8.89;100.00;97572.56;5046313;28;20109;-71
2022/10/08 03:53:58;;;;;;;13.25;9.63;;;;;;;8.71;100.00;97515.97;5045934;28;20528;-71
2022/10/08 03:56:25;;;;;;;16.55;8.70;;;;;;;9.01;100.00;97550.44;5044690;28;20394;-70
2022/10/08 03:58:54;;;;;;;17.92;10.30;;;;;;;9.40;100.00;97599.47;5045896;28;20129;-70
2022/10/08 04:01:21;;;;;;;17.20;11.02;;;;;;;9.23;100.00;97616.31;5045990;28;20549;-70
2022/10/08 04:03:48;;;;;;;24.85;14.38;;;;;;;8.86;100.00;97567.75;5046125;28;20040;-69
2022/10/08 04:06:15;;;;;;;18.85;12.75;;;;;;;9.16;100.00;97605.03;5045863;28;20503;-70
2022/10/08 04:08:42;;;;;;;20.75;12.18;;;;;;;8.97;100.00;97575.22;5045384;28;20056;-70
2022/10/08 04:11:12;;;;;;;23.73;13.65;;;;;;;9.28;100.00;97602.22;5044646;28;20911;-69
2022/10/08 04:13:39;;;;;;;23.83;12.68;;;;;;;9.33;100.00;97598.41;5044607;28;20060;-69
2022/10/08 04:16:12;;;;;;;21.00;11.52;;;;;;;9.32;100.00;97603.16;5044226;28;20072;-69
2022/10/08 04:18:39;;;;;;;19.10;11.57;;;;;;;9.34;100.00;97592.56;5045505;28;20522;-70
2022/10/08 04:21:08;;;;;;;18.27;10.95;;;;;;;9.11;100.00;97564.63;5044277;28;20052;-70
2022/10/08 04:23:37;;;;;;;15.18;10.52;;;;;;;9.21;100.00;97586.22;5045450;28;20099;-70
2022/10/08 04:26:05;;;;;;;12.25;8.55;;;;;;;9.07;100.00;97574.75;5044316;28;20133;-70
2022/10/08 04:28:32;;;;;;;13.95;8.90;;;;;;;9.19;100.00;97587.75;5045701;28;20057;-70
2022/10/08 04:31:07;;;;;;;28.17;12.95;;;;;;;9.28;100.00;97582.88;5045647;28;20064;-70
2022/10/08 04:33:34;;;;;;;15.43;9.98;;;;;;;9.08;100.00;97575.56;5044179;28;20076;-70
2022/10/08 04:36:07;;;;;;;18.85;10.63;;;;;;;9.22;100.00;97581.50;5044966;28;20084;-70
2022/10/08 04:38:34;;;;;;;15.27;10.40;;;;;;;8.70;100.00;97514.34;5045516;28;20140;-70
2022/10/08 04:41:05;;;;;;;18.08;11.38;;;;;;;8.90;100.00;97535.50;5044511;28;20496;-70
2022/10/08 04:43:34;;;;;;;27.80;12.77;;;;;;;9.31;100.00;97573.88;5043626;28;20107;-70
2022/10/08 04:46:01;;;;;;;26.70;11.65;;;;;;;9.36;100.00;97581.94;5044741;28;20115;-70
2022/10/08 04:48:28;;;;;;;20.05;10.80;;;;;;;8.61;100.00;97555.09;5045293;28;20529;-69
2022/10/08 04:50:59;;;;;;;17.77;9.88;;;;;;;9.00;100.00;97568.19;5045466;28;20063;-70
2022/10/08 04:53:26;;;;;;;21.20;11.98;;;;;;;8.37;100.00;97466.75;5045176;28;20134;-69
2022/10/08 04:55:54;;;;;;;20.05;10.77;;;;;;;9.16;100.00;97605.03;5045217;28;20052;-70
2022/10/08 04:58:23;;;;;;;29.58;13.63;;;;;;;8.30;100.00;97483.09;5044984;28;20124;-69
2022/10/08 05:00:50;;;;;;;18.50;9.80;;;;;;;8.66;100.00;97546.59;5043138;28;20084;-69
2022/10/08 05:03:17;;;;;;;15.13;9.88;;;;;;;9.21;100.00;97585.44;5044676;28;20061;-69
2022/10/08 05:05:44;;;;;;;18.52;9.63;;;;;;;9.35;100.00;97585.88;5043126;28;20486;-70
2022/10/08 05:08:11;;;;;;;16.85;9.45;;;;;;;9.37;100.00;97571.69;5043180;28;20192;-70
2022/10/08 05:10:38;;;;;;;13.98;10.40;;;;;;;9.06;100.00;97506.00;5044076;28;20076;-70
2022/10/08 05:13:05;;;;;;;13.98;8.95;;;;;;;9.38;100.00;97560.28;5035985;28;20077;-69
2022/10/08 05:15:34;;;;;;;14.77;9.65;;;;;;;9.62;100.00;97573.22;5043129;28;20111;-70
2022/10/08 05:18:00;;;;;;;14.60;9.43;;;;;;;9.56;100.00;97594.00;5043013;28;20057;-70
2022/10/08 05:20:27;;;;;;;14.30;8.80;;;;;;;9.10;100.00;97484.81;5044634;28;20053;-69
2022/10/08 05:22:53;;;;;;;13.73;10.05;;;;;;;9.86;100.00;97562.88;5042742;28;20045;-69
2022/10/08 05:25:20;;;;;;;17.15;9.48;;;;;;;9.73;100.00;97602.81;5044558;28;20240;-70
2022/10/08 05:27:47;;;;;;;14.13;9.23;;;;;;;10.04;100.00;97577.19;5044831;28;20082;-70
2022/10/08 05:30:13;;;;;;;16.73;9.27;;;;;;;10.07;100.00;97544.09;5042915;28;20080;-70
2022/10/08 05:32:47;;;;;;;;;;;;;;;10.58;99.24;97590.19;5044309;28;20152;-69
2022/10/08 05:35:14;;;;;;;14.15;8.15;;;;;;;10.69;97.80;97580.16;5042653;28;20354;-69
2022/10/08 05:37:41;;;;;;;27.08;8.70;;;;;;;10.85;96.20;97587.66;5044023;28;20084;-70
2022/10/08 05:40:08;;;;;;;10.43;7.25;;;;;;;10.68;95.56;97544.50;5044272;28;20480;-70
2022/10/08 05:42:35;;;;;;;12.43;8.15;;;;;;;11.14;95.67;97578.88;5044033;28;20157;-71
2022/10/08 05:45:01;;;;;;;15.35;7.95;;;;;;;11.36;95.29;97578.19;5043924;28;20570;-69
2022/10/08 05:47:28;;;;;;;14.63;10.38;;;;;;;10.89;93.57;97483.25;5042675;28;20148;-69
2022/10/08 05:49:55;;;;;;;16.13;9.73;;;;;;;11.88;93.02;97582.13;5044087;28;20162;-70
2022/10/08 05:52:21;;;;;;;13.20;8.55;;;;;;;11.35;91.05;97468.41;5046207;28;20064;-70
2022/10/08 05:54:48;;;;;;;17.13;9.43;;;;;;;12.32;90.00;97590.94;5047162;28;20494;-70
2022/10/08 05:57:15;;;;;;;12.05;7.78;;;;;;;12.32;88.54;97560.38;5048095;28;20660;-71
2022/10/08 05:59:41;;;;;;;12.05;7.50;;;;;;;12.07;90.06;97561.88;5048248;28;20131;-71
2022/10/08 06:02:10;;;;;;;11.05;6.63;;;;;;;12.02;86.94;97487.19;5046571;28;20130;-69
2022/10/08 06:04:36;;;;;;;11.05;6.88;;;;;;;12.59;84.92;97550.94;5046618;28;20098;-71
2022/10/08 06:07:03;;;;;;;19.42;7.57;;;;;;;12.91;84.82;97593.16;5046849;28;20076;-71
2022/10/08 06:09:30;;;;;;;9.95;6.60;;;;;;;12.70;84.43;97512.19;5048095;28;20427;-75
2022/10/08 06:11:56;;;;;;;9.00;6.15;;;;;;;13.54;81.03;97600.56;5040054;28;20156;-64
2022/10/08 06:14:23;;;;;;;9.93;6.03;;;;;;;13.27;80.35;97556.41;5039674;28;20163;-69
2022/10/08 06:16:50;;;;;;;9.35;6.03;;;;;;;13.59;80.16;97561.25;5047828;28;20540;-71
2022/10/08 06:19:17;;;;;;;12.35;5.88;;;;;;;14.01;79.66;97613.09;5044681;28;20135;-70
2022/10/08 06:21:43;;;;;;;19.08;8.85;;;;;;;14.20;79.08;97604.59;5046370;28;20080;-70
2022/10/08 06:24:11;;;;;;;15.15;9.43;;;;;;;13.99;78.88;97531.94;5047711;28;20488;-73
2022/10/08 06:26:39;;;;;;;14.82;8.23;;;;;;;13.29;77.09;97387.13;5047799;28;20098;-70
2022/10/08 06:29:13;;;;;;;13.65;7.97;;;;;;;14.36;75.74;97516.03;5047811;28;20056;-70
2022/10/08 06:31:40;;;;;;;14.77;8.77;;;;;;;13.57;75.20;97351.25;5046629;28;20106;-70
2022/10/08 06:34:07;;;;;;;13.02;8.88;;;;;;;15.44;74.02;97604.66;5062513;28;20060;-71
2022/10/08 06:36:36;;;;;;;12.05;7.38;;;;;;;15.73;72.66;97596.03;5047447;28;20137;-72
2022/10/08 06:39:06;;;;;;;14.55;7.20;;;;;;;15.53;70.52;97558.44;5046172;28;20532;-72
2022/10/08 06:41:33;;;;;;;10.02;7.07;;;;;;;16.09;70.53;97597.81;5047151;28;20080;-72
2022/10/08 06:44:03;;;;;;;22.92;8.23;;;;;;;16.24;69.46;97576.31;5047381;28;20416;-72
2022/10/08 06:46:31;;;;;;;16.80;8.57;;;;;;;16.60;67.22;97595.63;5046941;28;20558;-72
2022/10/08 06:48:59;;;;;;;14.27;8.40;;;;;;;16.16;65.74;97500.03;5047022;28;20090;-72
2022/10/08 06:51:27;;;;;;;19.05;8.40;;;;;;;16.50;65.93;97568.44;5045853;28;20125;-72
2022/10/08 06:53:55;;;;;;;14.07;8.52;;;;;;;16.81;64.28;97532.50;5047414;28;20121;-71
2022/10/08 06:56:27;;;;;;;15.85;8.57;;;;;;;15.68;62.71;97313.53;5046992;28;20053;-71
2022/10/08 06:58:54;;;;;;;16.38;9.30;;;;;;;17.49;61.93;97551.69;5046959;28;20053;-72
2022/10/08 07:01:22;;;;;;;17.52;8.93;;;;;;;17.94;62.15;97584.41;5046892;28;20190;-71
2022/10/08 07:03:57;;;;;;;17.88;8.80;;;;;;;17.80;61.72;97545.19;5046177;28;20106;-71
2022/10/08 07:06:24;;;;;;;11.68;6.88;;;;;;;18.10;59.73;97565.09;5046693;28;20099;-71
2022/10/08 07:08:56;;;;;;;12.30;6.93;;;;;;;18.41;59.19;97583.03;5046708;28;20151;-73
2022/10/08 07:11:24;;;;;;;10.63;5.95;;;;;;;18.47;58.95;97584.22;5046492;28;20069;-71
2022/10/08 07:13:50;;;;;;;19.55;10.13;;;;;;;18.56;58.34;97585.34;5045448;28;20474;-71
2022/10/08 07:16:22;;;;;;;21.58;11.68;;;;;;;18.62;56.24;97575.28;5046117;28;20126;-70
2022/10/08 07:18:50;;;;;;;13.32;6.78;;;;;;;18.26;54.43;97498.13;5046855;28;20168;-70
2022/10/08 07:21:19;;;;;;;18.58;9.43;;;;;;;18.85;53.97;97539.06;5046582;28;20172;-72
2022/10/08 07:23:46;;;;;;;16.58;8.10;;;;;;;19.29;53.15;97570.03;5046670;28;20056;-72
2022/10/08 07:26:16;;;;;;;9.18;5.22;;;;;;;18.52;53.38;97435.88;5045169;28;20382;-70
2022/10/08 07:28:48;;;;;;;10.77;4.35;;;;;;;19.29;53.35;97564.41;5044875;28;20061;-70
2022/10/08 07:31:19;;;;;;;4.83;3.77;;;;;;;18.98;53.67;97565.44;5046088;28;20045;-70
2022/10/08 07:33:46;;;;;;;9.93;4.60;;;;;;;19.12;54.70;97559.72;5046590;28;20052;-70
2022/10/08 07:36:15;;;;;;;6.35;4.15;;;;;;;18.50;54.28;97466.34;5044755;28;20107;-71
2022/10/08 07:38:42;;;;;;;8.10;4.40;;;;;;;19.29;54.13;97558.78;5044816;28;20114;-72
2022/10/08 07:41:10;;;;;;;5.90;4.35;;;;;;;19.35;52.77;97554.31;5044626;28;20107;-71
2022/10/08 07:43:40;;;;;;;4.97;3.47;;;;;;;19.31;52.52;97553.56;5046156;28;20141;-72
2022/10/08 07:46:09;;;;;;;5.82;3.45;;;;;;;19.52;51.76;97549.75;5046267;28;20040;-71
2022/10/08 07:48:36;;;;;;;5.05;3.88;;;;;;;19.21;51.64;97472.94;5046131;28;20140;-70
2022/10/08 07:51:15;;;;;;;6.55;3.55;;;;;;;19.70;50.98;97549.53;5044539;28;20516;-70
2022/10/08 07:53:43;;;;;;;4.72;3.20;;;;;;;18.68;50.90;97441.78;5044580;28;20084;-71
2022/10/08 07:56:13;;;;;;;7.72;2.90;;;;;;;15.69;50.81;97165.13;5046367;28;20049;-72
2022/10/08 07:58:40;;;;;;;4.63;3.25;;;;;;;19.27;50.62;97532.28;5046714;28;20048;-70
2022/10/08 08:01:14;;;;;;;6.30;2.90;;;;;;;19.61;51.06;97557.69;5046139;28;20459;-72
2022/10/08 08:03:42;;;;;;;4.03;2.88;;;;;;;19.52;50.08;97567.38;5044613;28;20051;-71
2022/10/08 08:06:12;;;;;;;4.82;2.40;;;;;;;19.69;49.41;97553.56;5045592;28;20097;-70
2022/10/08 08:08:40;;;;;;;6.07;2.85;;;;;;;19.08;49.63;97494.34;5044394;28;20138;-72
2022/10/08 08:11:10;;;;;;;7.25;4.07;;;;;;;19.57;49.99;97552.09;5044812;28;20090;-71
2022/10/08 08:13:38;;;;;;;11.98;6.03;;;;;;;19.87;49.77;97554.19;5045892;28;20056;-70
2022/10/08 08:16:09;;;;;;;11.52;6.18;;;;;;;19.46;49.36;97467.91;5043072;28;20053;-70
2022/10/08 08:18:39;;;;;;;10.40;4.10;;;;;;;19.32;48.59;97417.47;5044375;28;20427;-70
2022/10/08 08:21:09;;;;;;;11.02;5.30;;;;;;;20.20;48.93;97562.66;5043741;28;20075;-71
2022/10/08 08:23:39;;;;;;;8.50;4.00;;;;;;;20.35;47.56;97564.06;5045582;28;20132;-71
2022/10/08 08:26:11;;;;;;;5.78;3.10;;;;;;;20.51;47.45;97543.75;5043925;28;20135;-71
2022/10/08 08:28:41;;;;;;;6.30;3.80;;;;;;;20.10;47.45;97498.06;5043579;28;20538;-70
2022/10/08 08:31:10;;;;;;;5.75;3.08;;;;;;;19.95;47.80;97444.00;5045392;28;20061;-71
2022/10/08 08:33:38;;;;;;;11.23;3.03;;;;;;;20.34;47.54;97485.69;5045227;28;20048;-73
2022/10/08 08:36:05;;;;;;;7.53;3.67;;;;;;;20.63;46.54;97531.91;5043555;28;20186;-70
2022/10/08 08:38:36;;;;;;;4.68;3.50;;;;;;;20.09;46.96;97505.69;5045239;28;20081;-69
2022/10/08 08:41:39;;;;;;;4.75;3.22;;;;;;;20.53;46.39;97535.69;5044517;28;20496;-71
2022/10/08 08:44:16;;;;;;;4.60;3.63;;;;;;;20.37;47.17;97530.69;5044903;28;20092;-68
2022/10/08 08:46:58;;;;;;;3.90;3.05;;;;;;;20.70;46.68;97524.19;5044966;28;20106;-69
2022/10/08 08:49:30;;;;;;;4.93;3.53;;;;;;;20.78;46.43;97530.50;5045132;28;20094;-71
2022/10/08 08:51:59;;;;;;;5.90;3.50;;;;;;;19.57;45.55;97323.66;5044936;28;20141;-72
2022/10/08 08:54:26;;;;;;;5.85;3.33;;;;;;;20.43;45.84;97440.94;5043570;28;20053;-69
2022/10/08 08:56:54;;;;;;;3.58;3.15;;;;;;;20.91;45.46;97477.97;5044333;28;20106;-69
2022/10/08 08:59:30;;;;;;;4.57;3.00;;;;;;;20.79;46.16;97515.19;5044126;28;20136;-68
2022/10/08 09:02:04;;;;;;;4.80;3.00;;;;;;;19.00;46.09;97220.44;5043263;28;20547;-68
2022/10/08 09:04:51;;;;;;;5.80;3.45;;;;;;;20.53;45.80;97435.13;5043688;28;20133;-70
2022/10/08 09:07:23;;;;;;;4.88;3.80;;;;;;;20.70;45.69;97472.69;5044019;28;20139;-66
2022/10/08 09:09:52;;;;;;;4.82;3.85;;;;;;;20.40;46.12;97448.22;5042681;28;20072;-65
2022/10/08 09:12:22;;;;;;;6.57;3.58;;;;;;;21.12;45.51;97510.66;5040342;28;20523;-69
2022/10/08 09:14:53;;;;;;;3.75;3.15;;;;;;;20.91;45.70;97500.50;5045564;28;20048;-67
2022/10/08 09:17:30;;;;;;;4.30;3.03;;;;;;;20.44;45.43;97477.09;5044445;28;20060;-67
2022/10/08 09:19:57;;;;;;;25.58;15.73;;;;;;;19.84;45.90;97328.06;5042883;28;20044;-63
2022/10/08 09:22:27;;;;;;;6.95;4.15;;;;;;;21.23;45.20;97489.50;5039444;28;20599;-67
2022/10/08 09:25:03;;;;;;;6.60;3.60;;;;;;;20.50;45.09;97328.25;5024125;28;20049;-63
2022/10/08 09:27:50;;;;;;;9.00;3.95;;;;;;;21.74;44.50;97480.50;5042239;28;20242;-66
2022/10/08 09:30:43;;;;;;;7.03;3.53;;;;;;;20.51;44.47;97248.22;5039277;28;20487;-62
2022/10/08 09:33:15;;;;;;;6.50;3.50;;;;;;;21.91;42.96;97484.22;5034909;28;20183;-73
2022/10/08 09:35:52;;;;;;;5.53;3.28;;;;;;;21.18;42.89;97329.41;5034455;28;20081;-73
2022/10/08 09:38:19;;;;;;;4.38;3.30;;;;;;;22.34;43.46;97465.94;5031206;28;20576;-69
2022/10/08 09:41:14;;;;;;;3.08;2.80;;;;;;;21.35;43.75;97460.72;5043430;28;20084;-69
2022/10/08 09:43:42;;;;;;;6.25;4.20;;;;;;;21.93;43.83;97454.34;5027692;28;20065;-72
2022/10/08 09:46:27;;;;;;;7.43;3.53;;;;;;;20.45;43.63;97256.38;5041611;28;20084;-71
2022/10/08 09:48:54;;;;;;;9.93;4.30;;;;;;;21.97;43.05;97460.69;5042121;28;20144;-68
2022/10/08 09:51:21;;;;;;;5.28;3.05;;;;;;;21.47;42.45;97330.41;5043393;28;20504;-69
2022/10/08 09:53:57;;;;;;;10.43;3.38;;;;;;;22.41;42.35;97440.34;5036309;28;20505;-70
2022/10/08 09:56:27;;;;;;;5.03;3.55;;;;;;;22.33;41.81;97447.41;5022425;28;20049;-70
2022/10/08 09:58:58;;;;;;;5.97;2.72;;;;;;;22.29;41.31;97415.63;5052246;28;20398;-72
2022/10/08 10:01:26;;;;;;;4.00;3.03;;;;;;;22.31;41.35;97384.94;5044148;28;20891;-69
2022/10/08 10:03:54;;;;;;;4.20;3.33;;;;;;;22.60;41.32;97435.94;5042601;28;20057;-69
2022/10/08 10:06:36;;;;;;;6.13;3.63;;;;;;;21.97;41.61;97437.34;5043257;28;20103;-73
2022/10/08 10:09:27;;;;;;;4.30;3.28;;;;;;;21.50;42.78;97425.38;5034205;28;20180;-65
2022/10/08 10:12:14;;;;;;;4.25;3.22;;;;;;;21.48;43.25;97412.97;5042892;28;20144;-68
2022/10/08 10:15:03;;;;;;;3.60;3.00;;;;;;;21.04;42.67;97346.56;5037196;28;20049;-63
2022/10/08 10:17:37;;;;;;;3.50;3.20;;;;;;;21.95;42.89;97418.03;5042984;28;20132;-70
2022/10/08 10:20:25;;;;;;;4.18;3.13;;;;;;;21.91;41.23;97386.28;5058851;28;20128;-70
2022/10/08 10:23:12;;;;;;;4.18;3.00;;;;;;;22.36;41.30;97387.25;5038513;28;20049;-73
2022/10/08 10:25:47;;;;;;;4.45;2.95;;;;;;;22.55;41.47;97398.94;5023053;28;20509;-69
2022/10/08 10:28:45;;;;;;;8.07;4.72;;;;;;;22.85;40.92;97395.75;5029365;28;20048;-72
2022/10/08 10:31:35;;;;;;;15.27;9.48;;;;;;;22.15;41.38;97387.75;5055965;28;20614;-70
2022/10/08 10:34:23;;;;;;;7.22;4.35;;;;;;;22.53;41.33;97388.06;5053857;28;20145;-70
2022/10/08 10:37:00;;;;;;;7.57;3.80;;;;;;;22.62;40.70;97381.81;5062116;28;20139;-69
2022/10/08 10:39:37;;;;;;;6.20;4.00;;;;;;;22.80;41.11;97382.16;5064692;28;20102;-70
2022/10/08 10:42:20;;;;;;;5.38;3.92;;;;;;;21.17;39.97;97124.94;5064946;28;20526;-70
2022/10/08 10:44:56;;;;;;;4.22;3.17;;;;;;;21.88;41.00;97265.84;5063882;28;20125;-70
2022/10/08 10:47:28;;;;;;;5.13;2.90;;;;;;;22.89;39.62;97368.22;5065179;28;20087;-71
2022/10/08 10:50:00;;;;;;;6.93;4.03;;;;;;;22.69;40.34;97364.69;5063891;28;20056;-71
2022/10/08 10:52:33;;;;;;;8.05;5.70;;;;;;;22.81;40.49;97363.97;5065055;28;20048;-70
2022/10/08 10:55:18;;;;;;;4.97;3.38;;;;;;;23.17;40.05;97358.97;5064181;28;20169;-72
2022/10/08 10:58:00;;;;;;;4.40;3.05;;;;;;;23.31;39.54;97355.78;5066705;28;20135;-73
2022/10/08 11:00:29;;;;;;;7.03;3.42;;;;;;;23.33;39.82;97358.97;5067252;28;20579;-73
2022/10/08 11:03:23;;;;;;;4.18;3.72;;;;;;;23.27;39.39;97352.25;5065421;28;20488;-73
2022/10/08 11:06:02;;;;;;;5.35;2.72;;;;;;;22.10;41.38;97351.56;5048659;28;20057;-74
2022/10/08 11:08:43;;;;;;;4.72;3.25;;;;;;;22.77;41.38;97351.97;5059030;28;20858;-73
2022/10/08 11:11:22;;;;;;;3.85;2.58;;;;;;;23.10;40.16;97340.16;5066266;28;20652;-71
2022/10/08 11:14:14;;;;;;;3.97;2.92;;;;;;;22.83;40.36;97342.50;5065134;28;20479;-69
2022/10/08 11:16:47;;;;;;;5.95;3.67;;;;;;;22.20;42.32;97344.09;5064899;28;20589;-72
2022/10/08 11:19:32;;;;;;;5.80;2.88;;;;;;;22.01;42.56;97339.31;5066983;28;20469;-67
2022/10/08 11:22:34;;;;;;;7.82;4.68;;;;;;;22.21;41.82;97345.66;5064523;28;20101;-68
2022/10/08 11:25:22;;;;;;;3.85;3.05;;;;;;;22.61;41.83;97335.03;5058986;28;20153;-65
2022/10/08 11:28:21;;;;;;;7.68;3.42;;;;;;;21.53;40.90;97232.78;5065232;28;20133;-69
2022/10/08 11:30:51;;;;;;;3.90;2.83;;;;;;;22.69;40.13;97314.66;5066185;28;20067;-69
2022/10/08 11:33:19;;;;;;;4.85;2.90;;;;;;;22.73;40.59;97263.72;5066416;28;20169;-72
2022/10/08 11:36:14;;;;;;;6.28;3.70;;;;;;;22.82;40.34;97283.63;5066417;28;20128;-71
2022/10/08 11:38:58;;;;;;;3.67;3.13;;;;;;;22.38;40.73;97262.59;5063049;28;20092;-70
2022/10/08 11:41:35;;;;;;;8.13;3.30;;;;;;;22.64;41.54;97305.91;5062523;28;20053;-71
2022/10/08 11:44:06;;;;;;;4.05;2.97;;;;;;;22.27;41.25;97214.88;5064582;28;20458;-70
2022/10/08 11:46:35;;;;;;;7.15;3.58;;;;;;;22.07;40.11;97123.09;5064088;28;20132;-71
2022/10/08 11:49:24;;;;;;;4.15;3.15;;;;;;;23.04;40.22;97296.75;5063848;28;20064;-69
2022/10/08 11:51:52;;;;;;;4.35;3.60;;;;;;;22.97;40.60;97296.16;5064238;28;20048;-71
2022/10/08 11:54:33;;;;;;;3.55;3.00;;;;;;;22.82;41.40;97283.63;5063951;28;20072;-70